PWSweather.com
Personal Weather Stations
Station Observations
ZL1DX1M
Mt. Roskill, Auckland, AK 1041

Mt. RoskillAuckland, AK 1041

Lat: -36.9, Lon: 174.74

Elevation: 54

Station Type:

http://www.sanctuaryweather.co.nz

Latest ConditionsUpdated 9:15:18 PM GMT+12 Saturday, Aug 23, 2014
Currently Today's Max Today's Min Today's Average
Temperature 51.4°F10.8°C 60.7°F15.9°C 49.6°F9.8°C 53.9°F12.2°C
Dew Point 48.3°F9.1°C 50.0°F10.0°C 40.2°F4.6°C 46.1°F7.8°C
Winds Calm Calm 8.4 mph ESE13.5 kmh ESE - 3.2 mph 5.1 kmh
Wind Gusts -- 15.0 mph24.1 kmh - -
Humidity 89% 89% 65% 75%
Pressure 30.42 in1030.1 mb 30.45 in1031.2 mb 30.35 in1027.8 mb -
Hour Temp Dew Point Humidity Winds Wind Gusts Pressure Precip Precip Rate Daily Precip Total
09:15 PM 51.4°F10.8°C 48.3°F9.1°C 89% Calm Calm -- 30.42 in1030.1 mb 0.00 in0.0 mm 0.00 in/hr0.0 mm/hr 0.00 in0.0 mm
09:00 PM 51.6°F10.9°C 48.4°F9.1°C 89% 0.3 mph SE0.5 kmh SE 1.0 mph1.6 kmh 30.42 in1030.1 mb 0.00 in0.0 mm 0.00 in/hr0.0 mm/hr 0.00 in0.0 mm
08:45 PM 51.5°F10.8°C 48.4°F9.1°C 89% 0.7 mph SE1.1 kmh SE 1.0 mph1.6 kmh 30.42 in1030.1 mb 0.00 in0.0 mm 0.00 in/hr0.0 mm/hr 0.00 in0.0 mm
08:30 PM 51.5°F10.8°C 48.1°F8.9°C 88% Calm Calm -- 30.42 in1030.1 mb 0.00 in0.0 mm 0.00 in/hr0.0 mm/hr 0.00 in0.0 mm
08:15 PM 51.8°F11.0°C 48.4°F9.1°C 88% Calm Calm -- 30.41 in1029.8 mb 0.00 in0.0 mm 0.00 in/hr0.0 mm/hr 0.00 in0.0 mm
08:00 PM 52.3°F11.3°C 48.5°F9.2°C 87% Calm Calm -- 30.41 in1029.8 mb 0.00 in0.0 mm 0.00 in/hr0.0 mm/hr 0.00 in0.0 mm
07:45 PM 52.1°F11.2°C 48.7°F9.3°C 88% 0.1 mph SE0.2 kmh SE 2.0 mph3.2 kmh 30.41 in1029.8 mb 0.00 in0.0 mm 0.00 in/hr0.0 mm/hr 0.00 in0.0 mm
07:30 PM 52.4°F11.3°C 48.6°F9.2°C 87% Calm Calm 1.0 mph1.6 kmh 30.41 in1029.8 mb 0.00 in0.0 mm 0.00 in/hr0.0 mm/hr 0.00 in0.0 mm
07:15 PM 52.5°F11.4°C 48.4°F9.1°C 86% Calm Calm -- 30.40 in1029.5 mb 0.00 in0.0 mm 0.00 in/hr0.0 mm/hr 0.00 in0.0 mm
07:00 PM 52.7°F11.5°C 48.6°F9.2°C 86% 0.2 mph SSE0.3 kmh SSE 1.0 mph1.6 kmh 30.40 in1029.5 mb 0.00 in0.0 mm 0.00 in/hr0.0 mm/hr 0.00 in0.0 mm
06:45 PM 53.2°F11.8°C 48.5°F9.2°C 84% Calm Calm -- 30.39 in1029.1 mb 0.00 in0.0 mm 0.00 in/hr0.0 mm/hr 0.00 in0.0 mm
06:30 PM 54.0°F12.2°C 49.0°F9.4°C 83% Calm Calm -- 30.39 in1029.1 mb 0.00 in0.0 mm 0.00 in/hr0.0 mm/hr 0.00 in0.0 mm
06:15 PM 54.6°F12.6°C 48.9°F9.4°C 81% 1.0 mph SE1.6 kmh SE 3.0 mph4.8 kmh 30.38 in1028.8 mb 0.00 in0.0 mm 0.00 in/hr0.0 mm/hr 0.00 in0.0 mm
06:00 PM 55.4°F13.0°C 49.0°F9.4°C 79% 0.6 mph SW1.0 kmh SW 3.0 mph4.8 kmh 30.38 in1028.8 mb 0.00 in0.0 mm 0.00 in/hr0.0 mm/hr 0.00 in0.0 mm
05:45 PM 56.6°F13.7°C 49.2°F9.6°C 76% 0.9 mph SSW1.4 kmh SSW 2.0 mph3.2 kmh 30.38 in1028.8 mb 0.00 in0.0 mm 0.00 in/hr0.0 mm/hr 0.00 in0.0 mm
05:30 PM 57.5°F14.2°C 49.3°F9.6°C 74% Calm Calm 1.0 mph1.6 kmh 30.37 in1028.4 mb 0.00 in0.0 mm 0.00 in/hr0.0 mm/hr 0.00 in0.0 mm
05:15 PM 58.3°F14.6°C 49.3°F9.6°C 72% 0.9 mph WSW1.4 kmh WSW 5.0 mph8.0 kmh 30.37 in1028.4 mb 0.00 in0.0 mm 0.00 in/hr0.0 mm/hr 0.00 in0.0 mm
05:00 PM 58.9°F14.9°C 49.5°F9.7°C 71% 2.1 mph SSW3.4 kmh SSW 5.0 mph8.0 kmh 30.36 in1028.1 mb 0.00 in0.0 mm 0.00 in/hr0.0 mm/hr 0.00 in0.0 mm
04:45 PM 59.2°F15.1°C 49.4°F9.7°C 70% 2.2 mph ESE3.5 kmh ESE 6.0 mph9.7 kmh 30.36 in1028.1 mb 0.00 in0.0 mm 0.00 in/hr0.0 mm/hr 0.00 in0.0 mm
04:30 PM 59.5°F15.3°C 49.3°F9.6°C 69% 2.1 mph SE3.4 kmh SE 6.0 mph9.7 kmh 30.36 in1028.1 mb 0.00 in0.0 mm 0.00 in/hr0.0 mm/hr 0.00 in0.0 mm
04:15 PM 59.7°F15.4°C 49.5°F9.7°C 69% 0.6 mph SSW1.0 kmh SSW 6.0 mph9.7 kmh 30.35 in1027.8 mb 0.00 in0.0 mm 0.00 in/hr0.0 mm/hr 0.00 in0.0 mm
04:00 PM 60.7°F15.9°C 49.6°F9.8°C 67% 1.0 mph SSE1.6 kmh SSE 2.0 mph3.2 kmh 30.35 in1027.8 mb 0.00 in0.0 mm 0.00 in/hr0.0 mm/hr 0.00 in0.0 mm
03:45 PM 60.6°F15.9°C 49.9°F9.9°C 68% 1.1 mph SE1.8 kmh SE 5.0 mph8.0 kmh 30.35 in1027.8 mb 0.00 in0.0 mm 0.00 in/hr0.0 mm/hr 0.00 in0.0 mm
03:30 PM 60.7°F15.9°C 50.0°F10.0°C 68% 0.5 mph S0.8 kmh S 4.0 mph6.4 kmh 30.35 in1027.8 mb 0.00 in0.0 mm 0.00 in/hr0.0 mm/hr 0.00 in0.0 mm
03:15 PM 60.5°F15.8°C 49.5°F9.7°C 67% 2.8 mph N4.5 kmh N 3.0 mph4.8 kmh 30.36 in1028.1 mb 0.00 in0.0 mm 0.00 in/hr0.0 mm/hr 0.00 in0.0 mm
03:00 PM 60.3°F15.7°C 49.3°F9.6°C 67% 3.0 mph SSE4.8 kmh SSE 8.0 mph12.9 kmh 30.36 in1028.1 mb 0.00 in0.0 mm 0.00 in/hr0.0 mm/hr 0.00 in0.0 mm
02:45 PM 60.6°F15.9°C 49.2°F9.6°C 66% 2.2 mph SE3.5 kmh SE 5.0 mph8.0 kmh 30.37 in1028.4 mb 0.00 in0.0 mm 0.00 in/hr0.0 mm/hr 0.00 in0.0 mm
02:30 PM 59.9°F15.5°C 48.9°F9.4°C 67% 1.8 mph S2.9 kmh S 3.0 mph4.8 kmh 30.37 in1028.4 mb 0.00 in0.0 mm 0.00 in/hr0.0 mm/hr 0.00 in0.0 mm
02:15 PM 59.9°F15.5°C 48.5°F9.2°C 66% 2.5 mph SE4.0 kmh SE 6.0 mph9.7 kmh 30.38 in1028.8 mb 0.00 in0.0 mm 0.00 in/hr0.0 mm/hr 0.00 in0.0 mm
02:00 PM 60.0°F15.6°C 48.6°F9.2°C 66% 2.5 mph SE4.0 kmh SE 5.0 mph8.0 kmh 30.39 in1029.1 mb 0.00 in0.0 mm 0.00 in/hr0.0 mm/hr 0.00 in0.0 mm
01:45 PM 59.9°F15.5°C 48.5°F9.2°C 66% 2.7 mph SSE4.3 kmh SSE 4.0 mph6.4 kmh 30.39 in1029.1 mb 0.00 in0.0 mm 0.00 in/hr0.0 mm/hr 0.00 in0.0 mm
01:30 PM 59.0°F15.0°C 48.1°F8.9°C 67% 4.7 mph S7.6 kmh S 10.0 mph16.1 kmh 30.39 in1029.1 mb 0.00 in0.0 mm 0.00 in/hr0.0 mm/hr 0.00 in0.0 mm
01:15 PM 59.5°F15.3°C 48.1°F8.9°C 66% 4.2 mph WSW6.8 kmh WSW 8.0 mph12.9 kmh 30.39 in1029.1 mb 0.00 in0.0 mm 0.00 in/hr0.0 mm/hr 0.00 in0.0 mm
01:00 PM 59.3°F15.2°C 47.6°F8.7°C 65% 4.2 mph SW6.8 kmh SW 8.0 mph12.9 kmh 30.40 in1029.5 mb 0.00 in0.0 mm 0.00 in/hr0.0 mm/hr 0.00 in0.0 mm
12:45 PM 59.5°F15.3°C 47.7°F8.7°C 65% 3.4 mph SE5.5 kmh SE 10.0 mph16.1 kmh 30.41 in1029.8 mb 0.00 in0.0 mm 0.00 in/hr0.0 mm/hr 0.00 in0.0 mm
12:30 PM 59.2°F15.1°C 47.8°F8.8°C 66% 3.2 mph S5.1 kmh S 10.0 mph16.1 kmh 30.41 in1029.8 mb 0.00 in0.0 mm 0.00 in/hr0.0 mm/hr 0.00 in0.0 mm
12:15 PM 58.6°F14.8°C 47.3°F8.5°C 66% 4.5 mph SW7.2 kmh SW 5.0 mph8.0 kmh 30.42 in1030.1 mb 0.00 in0.0 mm 0.00 in/hr0.0 mm/hr 0.00 in0.0 mm
12:00 PM 58.6°F14.8°C 47.3°F8.5°C 66% 2.8 mph WSW4.5 kmh WSW 7.0 mph11.3 kmh 30.43 in1030.5 mb 0.00 in0.0 mm 0.00 in/hr0.0 mm/hr 0.00 in0.0 mm
11:45 AM 57.8°F14.3°C 47.6°F8.7°C 69% 1.5 mph SE2.4 kmh SE 6.0 mph9.7 kmh 30.43 in1030.5 mb 0.00 in0.0 mm 0.00 in/hr0.0 mm/hr 0.00 in0.0 mm
11:30 AM 57.3°F14.1°C 47.3°F8.5°C 69% 4.3 mph SE6.9 kmh SE 8.0 mph12.9 kmh 30.44 in1030.8 mb 0.00 in0.0 mm 0.00 in/hr0.0 mm/hr 0.00 in0.0 mm
11:15 AM 57.0°F13.9°C 47.7°F8.7°C 71% 4.6 mph ESE7.4 kmh ESE 13.0 mph20.9 kmh 30.44 in1030.8 mb 0.00 in0.0 mm 0.00 in/hr0.0 mm/hr 0.00 in0.0 mm
11:00 AM 56.6°F13.7°C 46.9°F8.3°C 70% 4.9 mph SE7.9 kmh SE 8.0 mph12.9 kmh 30.44 in1030.8 mb 0.00 in0.0 mm 0.00 in/hr0.0 mm/hr 0.00 in0.0 mm
10:45 AM 56.3°F13.5°C 47.1°F8.4°C 71% 4.9 mph SE7.9 kmh SE 9.0 mph14.5 kmh 30.43 in1030.5 mb 0.00 in0.0 mm 0.00 in/hr0.0 mm/hr 0.00 in0.0 mm
10:30 AM 55.7°F13.2°C 45.7°F7.6°C 69% 8.4 mph ESE13.5 kmh ESE 13.0 mph20.9 kmh 30.44 in1030.8 mb 0.00 in0.0 mm 0.00 in/hr0.0 mm/hr 0.00 in0.0 mm
10:15 AM 55.3°F12.9°C 45.3°F7.4°C 69% 6.7 mph SE10.8 kmh SE 11.0 mph17.7 kmh 30.44 in1030.8 mb 0.00 in0.0 mm 0.00 in/hr0.0 mm/hr 0.00 in0.0 mm
10:00 AM 55.3°F12.9°C 46.0°F7.8°C 71% 5.1 mph ESE8.2 kmh ESE 8.0 mph12.9 kmh 30.45 in1031.2 mb 0.00 in0.0 mm 0.00 in/hr0.0 mm/hr 0.00 in0.0 mm
09:45 AM 54.5°F12.5°C 45.7°F7.6°C 72% 1.3 mph W2.1 kmh W 4.0 mph6.4 kmh 30.45 in1031.2 mb 0.00 in0.0 mm 0.00 in/hr0.0 mm/hr 0.00 in0.0 mm
09:30 AM 54.0°F12.2°C 45.2°F7.3°C 72% 3.2 mph SE5.1 kmh SE 10.0 mph16.1 kmh 30.45 in1031.2 mb 0.00 in0.0 mm 0.00 in/hr0.0 mm/hr 0.00 in0.0 mm
09:15 AM 53.6°F12.0°C 45.8°F7.7°C 75% 3.6 mph SE5.8 kmh SE 8.0 mph12.9 kmh 30.45 in1031.2 mb 0.00 in0.0 mm 0.00 in/hr0.0 mm/hr 0.00 in0.0 mm
09:00 AM 53.2°F11.8°C 46.2°F7.9°C 77% 1.8 mph SE2.9 kmh SE 8.0 mph12.9 kmh 30.45 in1031.2 mb 0.00 in0.0 mm 0.00 in/hr0.0 mm/hr 0.00 in0.0 mm
08:45 AM 52.8°F11.6°C 45.8°F7.7°C 77% 5.1 mph E8.2 kmh E 4.0 mph6.4 kmh 30.45 in1031.2 mb 0.00 in0.0 mm 0.00 in/hr0.0 mm/hr 0.00 in0.0 mm
08:30 AM 52.3°F11.3°C 45.6°F7.6°C 78% 4.7 mph ESE7.6 kmh ESE 7.0 mph11.3 kmh 30.45 in1031.2 mb 0.00 in0.0 mm 0.00 in/hr0.0 mm/hr 0.00 in0.0 mm
08:15 AM 51.9°F11.1°C 45.6°F7.6°C 79% 3.0 mph SE4.8 kmh SE 7.0 mph11.3 kmh 30.45 in1031.2 mb 0.00 in0.0 mm 0.00 in/hr0.0 mm/hr 0.00 in0.0 mm
08:00 AM 51.6°F10.9°C 45.3°F7.4°C 79% 5.9 mph SE9.5 kmh SE 8.0 mph12.9 kmh 30.45 in1031.2 mb 0.00 in0.0 mm 0.00 in/hr0.0 mm/hr 0.00 in0.0 mm
07:45 AM 51.3°F10.7°C 45.0°F7.2°C 79% 2.7 mph SE4.3 kmh SE 6.0 mph9.7 kmh 30.45 in1031.2 mb 0.00 in0.0 mm 0.00 in/hr0.0 mm/hr 0.00 in0.0 mm
07:30 AM 51.0°F10.6°C 45.0°F7.2°C 80% 4.9 mph ESE7.9 kmh ESE 9.0 mph14.5 kmh 30.44 in1030.8 mb 0.00 in0.0 mm 0.00 in/hr0.0 mm/hr 0.00 in0.0 mm
07:15 AM 50.6°F10.3°C 45.0°F7.2°C 81% 4.4 mph ESE7.1 kmh ESE 7.0 mph11.3 kmh 30.44 in1030.8 mb 0.00 in0.0 mm 0.00 in/hr0.0 mm/hr 0.00 in0.0 mm
07:00 AM 50.2°F10.1°C 44.6°F7.0°C 81% 1.5 mph S2.4 kmh S 8.0 mph12.9 kmh 30.44 in1030.8 mb 0.00 in0.0 mm 0.00 in/hr0.0 mm/hr 0.00 in0.0 mm
06:45 AM 50.1°F10.1°C 44.8°F7.1°C 82% 3.5 mph SE5.6 kmh SE 7.0 mph11.3 kmh 30.44 in1030.8 mb 0.00 in0.0 mm 0.00 in/hr0.0 mm/hr 0.00 in0.0 mm
06:30 AM 50.1°F10.1°C 44.5°F6.9°C 81% 3.5 mph ESE5.6 kmh ESE 6.0 mph9.7 kmh 30.44 in1030.8 mb 0.00 in0.0 mm 0.00 in/hr0.0 mm/hr 0.00 in0.0 mm
06:15 AM 50.0°F10.0°C 44.1°F6.7°C 80% 3.7 mph SE6.0 kmh SE 7.0 mph11.3 kmh 30.43 in1030.5 mb 0.00 in0.0 mm 0.00 in/hr0.0 mm/hr 0.00 in0.0 mm
06:00 AM 50.0°F10.0°C 43.7°F6.5°C 79% 6.5 mph SE10.5 kmh SE 8.0 mph12.9 kmh 30.43 in1030.5 mb 0.00 in0.0 mm 0.00 in/hr0.0 mm/hr 0.00 in0.0 mm
05:45 AM 49.7°F9.8°C 43.5°F6.4°C 79% 2.9 mph SE4.7 kmh SE 9.0 mph14.5 kmh 30.43 in1030.5 mb 0.00 in0.0 mm 0.00 in/hr0.0 mm/hr 0.00 in0.0 mm
05:30 AM 49.7°F9.8°C 43.1°F6.2°C 78% 4.3 mph SE6.9 kmh SE 8.0 mph12.9 kmh 30.43 in1030.5 mb 0.00 in0.0 mm 0.00 in/hr0.0 mm/hr 0.00 in0.0 mm
05:15 AM 49.9°F9.9°C 43.3°F6.3°C 78% 4.2 mph SE6.8 kmh SE 8.0 mph12.9 kmh 30.43 in1030.5 mb 0.00 in0.0 mm 0.00 in/hr0.0 mm/hr 0.00 in0.0 mm
05:00 AM 50.2°F10.1°C 42.6°F5.9°C 75% 8.1 mph SE13.0 kmh SE 15.0 mph24.1 kmh 30.42 in1030.1 mb 0.00 in0.0 mm 0.00 in/hr0.0 mm/hr 0.00 in0.0 mm
04:45 AM 50.3°F10.2°C 42.7°F5.9°C 75% 6.4 mph SE10.3 kmh SE 10.0 mph16.1 kmh 30.42 in1030.1 mb 0.00 in0.0 mm 0.00 in/hr0.0 mm/hr 0.00 in0.0 mm
04:30 AM 50.3°F10.2°C 42.7°F5.9°C 75% 7.5 mph SE12.1 kmh SE 8.0 mph12.9 kmh 30.42 in1030.1 mb 0.00 in0.0 mm 0.00 in/hr0.0 mm/hr 0.00 in0.0 mm
04:15 AM 50.3°F10.2°C 42.7°F5.9°C 75% 6.2 mph SE10.0 kmh SE 10.0 mph16.1 kmh 30.42 in1030.1 mb 0.00 in0.0 mm 0.00 in/hr0.0 mm/hr 0.00 in0.0 mm
04:00 AM 50.3°F10.2°C 43.0°F6.1°C 76% 5.5 mph ESE8.9 kmh ESE 7.0 mph11.3 kmh 30.42 in1030.1 mb 0.00 in0.0 mm 0.00 in/hr0.0 mm/hr 0.00 in0.0 mm
03:45 AM 49.9°F9.9°C 43.6°F6.4°C 79% 4.8 mph SE7.7 kmh SE 8.0 mph12.9 kmh 30.42 in1030.1 mb 0.00 in0.0 mm 0.00 in/hr0.0 mm/hr 0.00 in0.0 mm
03:30 AM 49.8°F9.9°C 43.9°F6.6°C 80% 2.5 mph ESE4.0 kmh ESE 11.0 mph17.7 kmh 30.42 in1030.1 mb 0.00 in0.0 mm 0.00 in/hr0.0 mm/hr 0.00 in0.0 mm
03:15 AM 49.7°F9.8°C 43.8°F6.6°C 80% 3.1 mph SE5.0 kmh SE 7.0 mph11.3 kmh 30.42 in1030.1 mb 0.00 in0.0 mm 0.00 in/hr0.0 mm/hr 0.00 in0.0 mm
03:00 AM 49.6°F9.8°C 43.0°F6.1°C 78% 4.1 mph ESE6.6 kmh ESE 8.0 mph12.9 kmh 30.43 in1030.5 mb 0.00 in0.0 mm 0.00 in/hr0.0 mm/hr 0.00 in0.0 mm
02:45 AM 49.6°F9.8°C 42.7°F5.9°C 77% 4.5 mph SSE7.2 kmh SSE 8.0 mph12.9 kmh 30.43 in1030.5 mb 0.00 in0.0 mm 0.00 in/hr0.0 mm/hr 0.00 in0.0 mm
02:30 AM 49.6°F9.8°C 42.3°F5.7°C 76% 3.7 mph ESE6.0 kmh ESE 5.0 mph8.0 kmh 30.43 in1030.5 mb 0.00 in0.0 mm 0.00 in/hr0.0 mm/hr 0.00 in0.0 mm
02:15 AM 49.7°F9.8°C 42.1°F5.6°C 75% 6.4 mph SE10.3 kmh SE 9.0 mph14.5 kmh 30.43 in1030.5 mb 0.00 in0.0 mm 0.00 in/hr0.0 mm/hr 0.00 in0.0 mm
02:00 AM 49.8°F9.9°C 42.2°F5.7°C 75% 4.0 mph ESE6.4 kmh ESE 10.0 mph16.1 kmh 30.43 in1030.5 mb 0.00 in0.0 mm 0.00 in/hr0.0 mm/hr 0.00 in0.0 mm
01:45 AM 49.8°F9.9°C 42.2°F5.7°C 75% 6.2 mph ESE10.0 kmh ESE 8.0 mph12.9 kmh 30.44 in1030.8 mb 0.00 in0.0 mm 0.00 in/hr0.0 mm/hr 0.00 in0.0 mm
01:30 AM 49.7°F9.8°C 42.1°F5.6°C 75% 4.5 mph E7.2 kmh E 7.0 mph11.3 kmh 30.43 in1030.5 mb 0.00 in0.0 mm 0.00 in/hr0.0 mm/hr 0.00 in0.0 mm
01:15 AM 49.8°F9.9°C 42.2°F5.7°C 75% 3.9 mph SE6.3 kmh SE 4.0 mph6.4 kmh 30.43 in1030.5 mb 0.00 in0.0 mm 0.00 in/hr0.0 mm/hr 0.00 in0.0 mm
01:00 AM 49.8°F9.9°C 41.5°F5.3°C 73% 5.2 mph SE8.4 kmh SE 8.0 mph12.9 kmh 30.43 in1030.5 mb 0.00 in0.0 mm 0.00 in/hr0.0 mm/hr 0.00 in0.0 mm
12:45 AM 49.8°F9.9°C 41.1°F5.1°C 72% 4.6 mph SE7.4 kmh SE 7.0 mph11.3 kmh 30.43 in1030.5 mb 0.00 in0.0 mm 0.00 in/hr0.0 mm/hr 0.00 in0.0 mm
12:30 AM 49.6°F9.8°C 40.6°F4.8°C 71% 4.1 mph E6.6 kmh E 6.0 mph9.7 kmh 30.43 in1030.5 mb 0.00 in0.0 mm 0.00 in/hr0.0 mm/hr 0.00 in0.0 mm
12:15 AM 49.6°F9.8°C 40.2°F4.6°C 70% 3.4 mph ESE5.5 kmh ESE 5.0 mph8.0 kmh 30.42 in1030.1 mb 0.00 in0.0 mm 0.00 in/hr0.0 mm/hr 0.00 in0.0 mm
12:00 AM 49.7°F9.8°C 40.3°F4.6°C 70% 2.3 mph ESE3.7 kmh ESE 4.0 mph6.4 kmh 30.43 in1030.5 mb 0.00 in0.0 mm 0.00 in/hr0.0 mm/hr 0.00 in0.0 mm